createdAt,value
2019-01-11T00:01:54.378Z,18.83
2019-01-11T00:04:24.346Z,19.37
2019-01-11T00:07:02.077Z,19.07
2019-01-11T00:09:31.807Z,19.60
2019-01-11T00:12:01.694Z,18.40
2019-01-11T00:14:31.450Z,17.83
2019-01-11T00:17:01.710Z,17.90
2019-01-11T00:19:31.503Z,18.80
2019-01-11T00:22:01.869Z,18.43
2019-01-11T00:24:31.622Z,18.77
2019-01-11T00:27:01.364Z,18.63
2019-01-11T00:29:31.092Z,18.10
2019-01-11T00:32:02.393Z,16.93
2019-01-11T00:34:32.238Z,16.70
2019-01-11T00:37:02.097Z,17.43
2019-01-11T00:39:32.041Z,15.17
2019-01-11T00:42:01.831Z,16.50
2019-01-11T00:44:37.480Z,16.10
2019-01-11T00:47:07.283Z,14.00
2019-01-11T00:49:37.240Z,15.10
2019-01-11T00:52:07.228Z,14.93
2019-01-11T00:54:37.080Z,15.33
2019-01-11T00:57:06.848Z,15.50
2019-01-11T00:59:36.625Z,15.03
2019-01-11T01:02:06.502Z,15.73
2019-01-11T01:04:36.299Z,14.70
2019-01-11T01:07:06.228Z,14.87
2019-01-11T01:09:36.146Z,15.80
2019-01-11T01:12:06.635Z,14.87
2019-01-11T01:14:36.887Z,14.70
2019-01-11T01:17:08.348Z,15.93
2019-01-11T01:19:38.125Z,15.73
2019-01-11T01:22:07.918Z,16.00
2019-01-11T01:24:37.689Z,15.87
2019-01-11T01:27:08.939Z,15.80
2019-01-11T01:29:40.314Z,16.13
2019-01-11T01:32:10.110Z,15.93
2019-01-11T01:34:39.881Z,15.63
2019-01-11T01:37:09.653Z,16.10
2019-01-11T01:39:40.650Z,15.93
2019-01-11T01:42:10.480Z,17.23
2019-01-11T01:44:40.214Z,15.67
2019-01-11T01:47:10.100Z,15.57
2019-01-11T01:49:39.993Z,16.63
2019-01-11T01:52:09.736Z,15.90
2019-01-11T01:54:39.448Z,16.87
2019-01-11T01:57:09.321Z,16.90
2019-01-11T01:59:39.119Z,16.43
2019-01-11T02:02:08.876Z,16.73
2019-01-11T02:04:38.669Z,16.83
2019-01-11T02:07:08.438Z,17.00
2019-01-11T02:09:38.942Z,17.37
2019-01-11T02:12:08.737Z,17.47
2019-01-11T02:14:38.727Z,17.70
2019-01-11T02:17:08.650Z,17.67
2019-01-11T02:19:38.414Z,17.87
2019-01-11T02:22:08.335Z,18.33
2019-01-11T02:24:38.128Z,18.77
2019-01-11T02:27:07.908Z,17.80
2019-01-11T02:29:37.801Z,18.90
2019-01-11T02:32:07.759Z,19.63
2019-01-11T02:34:37.441Z,19.57
2019-01-11T02:37:07.259Z,19.00
2019-01-11T02:39:37.048Z,19.80
2019-01-11T02:42:06.804Z,20.20
2019-01-11T02:44:36.624Z,19.87
2019-01-11T02:47:06.562Z,20.70
2019-01-11T02:49:40.014Z,20.10
2019-01-11T02:52:08.039Z,19.00
2019-01-11T02:54:37.803Z,18.87
2019-01-11T02:57:07.615Z,19.97
2019-01-11T02:59:37.410Z,19.03
2019-01-11T03:02:07.200Z,19.67
2019-01-11T03:04:36.977Z,18.70
2019-01-11T03:07:06.781Z,19.13
2019-01-11T03:09:36.537Z,18.90
2019-01-11T03:12:06.334Z,19.27
2019-01-11T03:14:36.452Z,17.83
2019-01-11T03:17:06.423Z,18.30
2019-01-11T03:19:36.312Z,18.80
2019-01-11T03:22:06.272Z,17.67
2019-01-11T03:24:36.079Z,17.10
2019-01-11T03:27:05.891Z,16.13
2019-01-11T03:29:35.609Z,17.07
2019-01-11T03:32:05.428Z,16.83
2019-01-11T03:34:36.869Z,16.07
2019-01-11T03:37:06.764Z,16.93
2019-01-11T03:39:36.569Z,16.03
2019-01-11T03:42:07.985Z,15.90
2019-01-11T03:44:40.559Z,16.60
2019-01-11T03:47:10.263Z,16.07
2019-01-11T03:49:40.039Z,15.17
2019-01-11T03:52:09.884Z,14.53
2019-01-11T03:54:39.593Z,15.00
2019-01-11T03:57:09.318Z,15.17
2019-01-11T03:59:39.166Z,14.93
2019-01-11T04:02:08.973Z,15.00
2019-01-11T04:04:38.811Z,14.97
2019-01-11T04:07:08.616Z,14.50
2019-01-11T04:09:38.308Z,14.20
2019-01-11T04:12:08.177Z,14.63
2019-01-11T04:14:38.035Z,14.07
2019-01-11T04:17:07.795Z,13.60
2019-01-11T04:19:37.588Z,13.73
2019-01-11T04:22:08.954Z,13.63
2019-01-11T04:24:43.225Z,14.20
2019-01-11T04:27:12.925Z,13.20
2019-01-11T04:29:42.674Z,11.97
2019-01-11T04:32:12.376Z,12.57
2019-01-11T04:34:42.107Z,12.57
2019-01-11T04:37:11.918Z,12.60
2019-01-11T04:39:41.664Z,11.53
2019-01-11T04:42:11.437Z,11.07
2019-01-11T04:44:41.252Z,11.37
2019-01-11T04:47:11.004Z,10.90
2019-01-11T04:49:41.960Z,11.33
2019-01-11T04:52:11.735Z,11.03
2019-01-11T04:54:41.518Z,11.40
2019-01-11T04:57:11.190Z,11.20
2019-01-11T04:59:40.968Z,10.47
2019-01-11T05:02:10.807Z,11.20
2019-01-11T05:04:40.587Z,10.90
2019-01-11T05:07:10.355Z,11.00
2019-01-11T05:09:40.008Z,11.13
2019-01-11T05:12:09.830Z,10.57
2019-01-11T05:14:39.671Z,10.53
2019-01-11T05:17:09.441Z,11.07
2019-01-11T05:19:39.152Z,10.87
2019-01-11T05:22:08.987Z,11.73
2019-01-11T05:24:38.644Z,11.93
2019-01-11T05:27:08.335Z,11.60
2019-01-11T05:29:38.119Z,12.13
2019-01-11T05:32:07.907Z,12.07
2019-01-11T05:34:37.676Z,12.83
2019-01-11T05:37:07.582Z,13.23
2019-01-11T05:39:37.339Z,13.43
2019-01-11T05:42:07.117Z,13.93
2019-01-11T05:44:36.995Z,13.63
2019-01-11T05:47:06.740Z,14.77
2019-01-11T05:49:37.658Z,15.63
2019-01-11T05:52:07.447Z,15.60
2019-01-11T05:54:37.311Z,15.60
2019-01-11T05:57:07.118Z,17.30
2019-01-11T05:59:36.919Z,17.13
2019-01-11T06:02:06.663Z,16.23
2019-01-11T06:04:38.068Z,17.00
2019-01-11T06:07:23.830Z,16.97
2019-01-11T06:09:53.514Z,16.23
2019-01-11T06:12:23.143Z,15.80
2019-01-11T06:14:53.044Z,16.00
2019-01-11T06:17:22.904Z,16.97
2019-01-11T06:19:52.594Z,16.80
2019-01-11T06:22:22.322Z,16.97
2019-01-11T06:24:52.072Z,17.13
2019-01-11T06:27:21.832Z,18.23
2019-01-11T06:29:51.555Z,17.87
2019-01-11T06:32:21.334Z,17.43
2019-01-11T06:34:51.099Z,17.33
2019-01-11T06:37:20.888Z,18.17
2019-01-11T06:39:50.798Z,18.20
2019-01-11T06:42:22.228Z,18.03
2019-01-11T06:44:51.999Z,18.37
2019-01-11T06:47:21.733Z,18.27
2019-01-11T06:49:51.425Z,18.63
2019-01-11T06:52:21.142Z,18.37
2019-01-11T06:54:51.349Z,18.57
2019-01-11T06:57:21.278Z,17.93
2019-01-11T06:59:50.946Z,18.97
2019-01-11T07:02:20.798Z,19.80
2019-01-11T07:04:50.555Z,19.70
2019-01-11T07:07:20.268Z,19.53
2019-01-11T07:09:50.125Z,20.83
2019-01-11T07:12:19.817Z,19.67
2019-01-11T07:14:49.663Z,20.93
2019-01-11T07:17:19.378Z,21.17
2019-01-11T07:19:49.182Z,20.40
2019-01-11T07:22:18.794Z,21.77
2019-01-11T07:24:48.591Z,20.23
2019-01-11T07:27:18.248Z,20.37
2019-01-11T07:29:48.048Z,20.90
2019-01-11T07:32:17.815Z,21.70
2019-01-11T07:34:47.514Z,21.27
2019-01-11T07:37:17.304Z,20.17
2019-01-11T07:39:47.107Z,21.93
2019-01-11T07:42:16.877Z,21.47
2019-01-11T07:44:46.706Z,21.40
2019-01-11T07:47:16.374Z,21.70
2019-01-11T07:49:46.241Z,21.40
2019-01-11T07:52:16.053Z,21.67
2019-01-11T07:54:45.766Z,23.13
2019-01-11T07:57:15.555Z,21.93
2019-01-11T07:59:45.448Z,21.83
2019-01-11T08:02:15.137Z,23.40
2019-01-11T08:04:44.901Z,24.13
2019-01-11T08:07:14.617Z,24.63
2019-01-11T08:09:44.373Z,25.30
2019-01-11T08:12:14.042Z,26.23
2019-01-11T08:14:43.886Z,25.43
2019-01-11T08:17:13.710Z,25.70
2019-01-11T08:19:43.354Z,26.57
2019-01-11T08:22:14.861Z,27.50
2019-01-11T08:24:46.209Z,28.83
2019-01-11T08:27:15.943Z,27.23
2019-01-11T08:29:45.627Z,27.40
2019-01-11T08:32:15.382Z,28.20
2019-01-11T08:34:45.133Z,26.23
2019-01-11T08:37:15.826Z,27.90
2019-01-11T08:39:45.575Z,27.63
2019-01-11T08:42:15.411Z,29.77
2019-01-11T08:47:56.753Z,30.17
2019-01-11T08:50:26.543Z,28.10
2019-01-11T08:52:57.413Z,29.20
2019-01-11T08:55:28.875Z,31.27
2019-01-11T08:57:58.722Z,30.70
2019-01-11T09:00:28.515Z,33.20
2019-01-11T09:02:58.223Z,30.83
2019-01-11T09:05:28.067Z,29.50
2019-01-11T09:07:57.928Z,31.57
2019-01-11T09:10:27.767Z,31.57
2019-01-11T09:12:57.476Z,31.60
2019-01-11T09:15:27.237Z,29.60
2019-01-11T09:18:01.059Z,29.03
2019-01-11T09:20:31.122Z,29.90
2019-01-11T09:23:00.924Z,29.20
2019-01-11T09:25:30.902Z,27.97
2019-01-11T09:28:00.659Z,28.43
2019-01-11T09:30:30.680Z,25.10
2019-01-11T09:33:00.905Z,23.57
2019-01-11T09:35:30.622Z,22.53
2019-01-11T09:38:00.315Z,23.60
2019-01-11T09:40:30.452Z,22.97
2019-01-11T09:43:00.231Z,23.47
2019-01-11T09:45:30.030Z,24.17
2019-01-11T09:47:59.850Z,23.93
2019-01-11T09:50:29.716Z,25.70
2019-01-11T09:52:59.498Z,23.40
2019-01-11T09:55:29.230Z,24.00
2019-01-11T09:58:02.150Z,23.70
2019-01-11T10:00:31.991Z,25.50
2019-01-11T10:03:05.688Z,27.57
2019-01-11T10:05:35.428Z,28.67
2019-01-11T10:08:05.357Z,26.77
2019-01-11T10:10:35.267Z,26.00
2019-01-11T10:13:04.992Z,26.13
2019-01-11T10:15:34.757Z,27.63
2019-01-11T10:18:04.673Z,28.47
2019-01-11T10:20:34.494Z,27.03
2019-01-11T10:23:04.325Z,28.90
2019-01-11T10:25:34.100Z,28.70
2019-01-11T10:28:03.972Z,30.37
2019-01-11T10:30:33.739Z,29.97
2019-01-11T10:33:03.395Z,28.43
2019-01-11T10:35:33.083Z,30.40
2019-01-11T10:38:02.972Z,31.57
2019-01-11T10:40:32.851Z,28.53
2019-01-11T10:43:02.630Z,30.00
2019-01-11T10:45:32.406Z,29.33
2019-01-11T10:48:02.131Z,27.80
2019-01-11T10:50:31.894Z,28.73
2019-01-11T10:53:01.675Z,27.80
2019-01-11T10:55:32.304Z,27.33
2019-01-11T10:58:02.105Z,29.43
2019-01-11T11:00:31.965Z,28.93
2019-01-11T11:03:01.766Z,27.40
2019-01-11T11:05:31.595Z,27.80
2019-01-11T11:08:01.447Z,27.30
2019-01-11T11:10:31.172Z,27.83
2019-01-11T11:13:00.968Z,26.57
2019-01-11T11:15:30.649Z,25.03
2019-01-11T11:18:00.420Z,27.23
2019-01-11T11:20:30.236Z,27.30
2019-01-11T11:23:00.265Z,24.80
2019-01-11T11:25:30.237Z,25.27
2019-01-11T11:28:00.098Z,25.37
2019-01-11T11:30:29.896Z,24.00
2019-01-11T11:33:00.009Z,22.13
2019-01-11T11:35:29.958Z,21.77
2019-01-11T11:37:59.823Z,21.33
2019-01-11T11:40:29.918Z,20.93
2019-01-11T11:42:59.798Z,20.47
2019-01-11T11:45:30.766Z,20.23
2019-01-11T11:48:00.558Z,18.77
2019-01-11T11:50:30.393Z,19.60
2019-01-11T11:53:03.708Z,17.17
2019-01-11T11:55:36.984Z,18.73
2019-01-11T11:58:09.201Z,18.23
2019-01-11T12:15:16.366Z,15.20
2019-01-11T12:17:46.348Z,14.87
2019-01-11T12:23:17.557Z,15.73
2019-01-11T12:23:59.271Z,16.20
2019-01-11T12:25:47.541Z,15.43
2019-01-11T12:28:17.596Z,14.10
2019-01-11T12:30:49.719Z,13.57
2019-01-11T12:36:28.521Z,13.40
2019-01-11T12:38:58.503Z,13.63
2019-01-11T12:41:28.339Z,12.30
2019-01-11T12:43:59.263Z,11.97
2019-01-11T12:46:29.177Z,10.57
2019-01-11T12:48:59.018Z,10.97
2019-01-11T12:51:28.804Z,10.13
2019-01-11T12:53:58.659Z,10.33
2019-01-11T12:56:28.412Z,10.03
2019-01-11T12:58:58.629Z,9.70
2019-01-11T13:01:31.250Z,10.43
2019-01-11T13:04:00.938Z,10.40
2019-01-11T13:06:31.010Z,10.90
2019-01-11T13:09:00.831Z,9.60
2019-01-11T13:11:30.677Z,10.97
2019-01-11T13:14:03.949Z,9.50
2019-01-11T13:16:33.748Z,10.10
2019-01-11T13:19:03.546Z,10.03
2019-01-11T13:21:33.419Z,10.03
2019-01-11T13:24:03.176Z,9.20
2019-01-11T13:26:32.988Z,11.20
2019-01-11T13:29:02.840Z,9.33
2019-01-11T13:31:32.583Z,8.97
2019-01-11T13:34:02.373Z,9.07
2019-01-11T13:36:32.354Z,7.53
2019-01-11T13:39:02.204Z,8.17
2019-01-11T13:41:32.085Z,7.03
2019-01-11T13:44:01.982Z,6.30
2019-01-11T13:46:31.792Z,6.43
2019-01-11T13:49:15.786Z,6.27
2019-01-11T13:51:47.626Z,5.70
2019-01-11T13:54:17.381Z,5.37
2019-01-11T13:56:47.343Z,5.47
2019-01-11T13:59:17.166Z,4.80
2019-01-11T14:01:46.920Z,4.07
2019-01-11T14:04:16.566Z,5.10
2019-01-11T14:06:46.407Z,4.60
2019-01-11T14:09:16.395Z,4.23
2019-01-11T14:11:46.221Z,4.03
2019-01-11T14:14:16.165Z,3.93
2019-01-11T14:16:45.925Z,3.73
2019-01-11T14:19:15.886Z,4.10
2019-01-11T14:21:45.605Z,3.83
2019-01-11T14:24:15.368Z,3.90
2019-01-11T14:26:45.208Z,4.07
2019-01-11T14:29:15.137Z,4.70
2019-01-11T14:31:45.065Z,3.53
2019-01-11T14:34:14.991Z,4.80
2019-01-11T14:36:46.600Z,4.20
2019-01-11T14:39:16.668Z,4.23
2019-01-11T14:41:46.566Z,4.73
2019-01-11T14:44:16.445Z,4.57
2019-01-11T14:46:46.272Z,4.20
2019-01-11T14:49:16.163Z,5.10
2019-01-11T14:51:45.951Z,4.97
2019-01-11T14:54:15.771Z,5.00
2019-01-11T14:56:45.534Z,4.70
2019-01-11T14:59:15.306Z,4.57
2019-01-11T15:01:45.097Z,4.57
2019-01-11T15:04:14.799Z,5.13
2019-01-11T15:06:44.555Z,4.80
2019-01-11T15:09:14.410Z,4.70
2019-01-11T15:11:44.311Z,5.53
2019-01-11T15:14:14.230Z,4.43
2019-01-11T15:16:44.127Z,4.83
2019-01-11T15:19:15.653Z,4.77
2019-01-11T15:21:45.642Z,4.50
2019-01-11T15:24:15.615Z,4.13
2019-01-11T15:26:45.489Z,3.83
2019-01-11T15:29:15.497Z,4.00
2019-01-11T15:31:45.337Z,4.07
2019-01-11T15:34:15.085Z,3.50
2019-01-11T15:36:44.941Z,3.80
2019-01-11T15:39:14.707Z,3.27
2019-01-11T15:41:44.782Z,4.10
2019-01-11T15:44:14.637Z,4.00
2019-01-11T15:46:44.541Z,3.97
2019-01-11T15:49:14.309Z,4.23
2019-01-11T15:51:44.156Z,4.83
2019-01-11T15:54:13.867Z,5.30
2019-01-11T15:56:44.136Z,5.57
2019-01-11T15:59:16.337Z,5.43
2019-01-11T16:01:46.198Z,5.77
2019-01-11T16:04:16.096Z,5.93
2019-01-11T16:06:52.341Z,5.63
2019-01-11T16:09:29.160Z,6.13
2019-01-11T16:12:02.420Z,5.73
2019-01-11T16:14:41.186Z,6.13
2019-01-11T16:17:14.376Z,5.57
2019-01-11T16:19:44.198Z,6.00
2019-01-11T16:22:14.053Z,6.00
2019-01-11T16:24:43.907Z,6.37
2019-01-11T16:27:13.679Z,5.47
2019-01-11T16:29:43.720Z,6.40
2019-01-11T16:32:13.663Z,6.20
2019-01-11T16:34:43.597Z,6.27
2019-01-11T16:37:13.322Z,6.43
2019-01-11T16:39:43.288Z,5.80
2019-01-11T16:42:15.288Z,5.57
2019-01-11T16:44:45.257Z,5.50
2019-01-11T16:47:15.221Z,4.43
2019-01-11T16:49:45.140Z,4.77
2019-01-11T16:52:16.406Z,4.70
2019-01-11T16:54:47.345Z,4.13
2019-01-11T16:57:17.374Z,4.37
2019-01-11T16:59:47.113Z,4.80
2019-01-11T17:02:16.884Z,5.87
2019-01-11T17:04:46.935Z,5.50
2019-01-11T17:07:18.547Z,5.57
2019-01-11T17:09:48.311Z,5.47
2019-01-11T17:12:18.134Z,5.30
2019-01-11T17:15:02.260Z,5.10
2019-01-11T17:17:32.226Z,5.60
2019-01-11T17:20:02.242Z,5.47
2019-01-11T17:22:32.041Z,5.50
2019-01-11T17:25:01.870Z,5.67
2019-01-11T17:27:31.638Z,5.53
2019-01-11T17:30:01.528Z,4.80
2019-01-11T17:32:31.303Z,5.67
2019-01-11T17:35:01.136Z,5.37
2019-01-11T17:37:31.885Z,5.43
2019-01-11T17:40:15.111Z,5.33
2019-01-11T17:42:53.317Z,5.43
2019-01-11T17:45:23.115Z,4.87
2019-01-11T17:47:52.822Z,5.10
2019-01-11T18:30:47.379Z,5.83
2019-01-11T18:33:17.175Z,3.90
2019-01-11T18:35:46.931Z,5.07
2019-01-11T18:38:16.797Z,4.73
2019-01-11T18:40:46.752Z,4.73
2019-01-11T18:43:16.512Z,4.17
2019-01-11T18:45:47.452Z,5.40
2019-01-11T18:48:17.196Z,5.30
2019-01-11T18:50:46.988Z,4.93
2019-01-11T18:53:17.107Z,4.73
2019-01-11T18:55:49.886Z,4.77
2019-01-11T18:58:19.725Z,4.73
2019-01-11T19:00:49.522Z,5.30
2019-01-11T19:03:19.342Z,4.80
2019-01-11T19:05:49.196Z,4.67
2019-01-11T19:08:18.976Z,3.90
2019-01-11T19:10:48.756Z,4.70
2019-01-11T19:13:18.696Z,4.00
2019-01-11T19:15:48.617Z,4.70
2019-01-11T19:18:18.375Z,4.03
2019-01-11T19:20:48.351Z,4.67
2019-01-11T19:23:20.568Z,4.07
2019-01-11T19:25:49.773Z,4.47
2019-01-11T19:28:19.488Z,4.40
2019-01-11T19:30:49.224Z,5.00
2019-01-11T19:33:19.009Z,4.53
2019-01-11T19:35:48.865Z,4.47
2019-01-11T19:38:18.648Z,4.97
2019-01-11T19:40:48.496Z,4.33
2019-01-11T19:43:18.244Z,5.00
2019-01-11T19:45:48.218Z,4.50
2019-01-11T19:48:18.045Z,3.93
2019-01-11T19:50:47.864Z,4.27
2019-01-11T19:53:17.676Z,5.17
2019-01-11T19:55:47.467Z,5.30
2019-01-11T19:58:17.251Z,5.97
2019-01-11T20:00:47.085Z,4.90
2019-01-11T20:03:16.771Z,4.90
2019-01-11T20:05:46.551Z,4.67
2019-01-11T20:08:16.572Z,4.73
2019-01-11T20:10:46.406Z,4.97
2019-01-11T20:13:17.676Z,3.90
2019-01-11T20:15:47.619Z,5.63
2019-01-11T20:18:17.461Z,4.87
2019-01-11T20:20:47.269Z,4.93
2019-01-11T20:23:17.102Z,5.40
2019-01-11T20:25:46.824Z,4.80
2019-01-11T20:28:16.794Z,5.50
2019-01-11T20:30:46.607Z,5.17
2019-01-11T20:33:16.551Z,5.20
2019-01-11T20:35:46.362Z,5.57
2019-01-11T20:38:17.141Z,5.03
2019-01-11T20:40:47.029Z,4.97
2019-01-11T20:43:17.657Z,5.30
2019-01-11T20:45:47.594Z,5.37
2019-01-11T20:48:17.452Z,4.87
2019-01-11T20:50:47.239Z,5.53
2019-01-11T20:53:17.085Z,4.67
2019-01-11T20:55:46.987Z,5.70
2019-01-11T20:58:16.902Z,5.83
2019-01-11T21:00:47.010Z,4.63
2019-01-11T21:03:16.981Z,5.50
2019-01-11T21:05:47.087Z,5.13
2019-01-11T21:08:16.941Z,4.73
2019-01-11T21:10:46.980Z,4.97
2019-01-11T21:13:16.901Z,5.00
2019-01-11T21:15:46.796Z,5.37
2019-01-11T21:18:16.676Z,5.73
2019-01-11T21:20:46.514Z,5.23
2019-01-11T21:23:16.480Z,5.40
2019-01-11T21:25:46.218Z,5.00
2019-01-11T21:28:17.835Z,5.50
2019-01-11T21:30:57.304Z,4.50
2019-01-11T21:33:26.968Z,4.90
2019-01-11T21:35:56.689Z,5.47
2019-01-11T21:38:26.674Z,5.17
2019-01-11T21:40:58.220Z,6.07
2019-01-11T21:44:00.121Z,5.03
2019-01-11T21:46:22.973Z,4.97
2019-01-11T21:51:39.813Z,5.03
2019-01-11T21:54:20.587Z,5.13
2019-01-11T21:56:53.472Z,4.47
2019-01-11T21:59:26.618Z,4.40
2019-01-11T22:02:05.573Z,6.53
2019-01-11T22:04:37.384Z,5.30
2019-01-11T22:07:09.176Z,5.30
2019-01-11T22:09:42.399Z,4.93
2019-01-11T22:12:17.423Z,4.90
2019-01-11T22:14:56.237Z,5.50
2019-01-11T22:17:33.353Z,5.87
2019-01-11T22:20:06.929Z,4.90
2019-01-11T22:22:39.722Z,5.17
2019-01-11T22:25:12.344Z,5.77
2019-01-11T22:27:59.923Z,5.10
2019-01-11T22:30:33.256Z,4.93
2019-01-11T22:33:03.377Z,6.23
2019-01-11T22:35:37.436Z,4.83
2019-01-11T22:38:07.241Z,5.47
2019-01-11T22:40:36.960Z,6.50
2019-01-11T22:43:06.714Z,5.13
2019-01-11T22:45:36.474Z,6.07
2019-01-11T22:48:06.267Z,6.20
2019-01-11T22:50:36.054Z,5.30
2019-01-11T22:53:05.923Z,5.30
2019-01-11T22:55:35.858Z,5.00
2019-01-11T22:58:05.657Z,5.23
2019-01-11T23:00:45.853Z,5.80
2019-01-11T23:03:35.588Z,5.60
2019-01-11T23:06:12.576Z,4.37
2019-01-11T23:08:42.556Z,4.67
2019-01-11T23:11:15.750Z,4.87
2019-01-11T23:13:45.522Z,4.73
2019-01-11T23:16:21.215Z,5.53
2019-01-11T23:18:56.664Z,5.40
2019-01-11T23:21:29.858Z,4.33
2019-01-11T23:24:06.728Z,4.53
2019-01-11T23:26:37.689Z,4.63
2019-01-11T23:29:07.579Z,5.87
2019-01-11T23:31:37.474Z,5.20
2019-01-11T23:34:07.303Z,4.77
2019-01-11T23:36:40.157Z,4.83
2019-01-11T23:39:12.892Z,5.23
2019-01-11T23:41:42.899Z,5.80
2019-01-11T23:44:19.973Z,6.07
2019-01-11T23:46:49.832Z,5.90
2019-01-11T23:49:25.699Z,5.83
2019-01-11T23:51:58.210Z,5.47
2019-01-11T23:54:29.497Z,6.20
2019-01-11T23:57:01.673Z,5.80
2019-01-11T23:59:33.087Z,4.97
